Time;durP1;ratioP1;P1;durP2;ratioP2;P2;SDS_P1;SDS_P2;PMS_P1;PMS_P2;Temp;Humidity;BMP_temperature;BMP_pressure;BME280_temperature;BME280_humidity;BME280_pressure;Samples;Min_cycle;Max_cycle;Signal;HPM_P1;HPM_P2
2022/03/02 00:00:38;;;;;;;37.95;22.40;;;4.40;99.90;;;;;;5060187;28;20054;-39
2022/03/02 00:03:04;;;;;;;36.15;21.40;;;4.40;99.90;;;;;;5067346;28;20091;-40
2022/03/02 00:05:31;;;;;;;34.97;20.38;;;4.40;99.90;;;;;;5035055;28;20040;-40
2022/03/02 00:07:57;;;;;;;37.75;21.63;;;4.40;99.90;;;;;;5064113;28;20045;-40
2022/03/02 00:10:23;;;;;;;39.22;22.10;;;4.40;99.90;;;;;;5055423;28;20043;-40
2022/03/02 00:12:50;;;;;;;39.00;21.83;;;4.40;99.90;;;;;;5049182;28;20348;-40
2022/03/02 00:15:16;;;;;;;38.42;22.60;;;4.40;99.90;;;;;;5069165;28;20063;-40
2022/03/02 00:17:42;;;;;;;38.95;23.38;;;4.40;99.90;;;;;;5066388;28;20038;-38
2022/03/02 00:20:08;;;;;;;42.15;23.08;;;4.40;99.90;;;;;;5068149;28;20159;-38
2022/03/02 00:22:34;;;;;;;41.65;24.05;;;4.30;99.90;;;;;;5067216;28;20036;-38
2022/03/02 00:25:00;;;;;;;38.40;22.40;;;4.40;99.90;;;;;;5064319;28;20052;-38
2022/03/02 00:27:27;;;;;;;35.75;21.58;;;4.30;99.90;;;;;;5050337;28;20047;-37
2022/03/02 00:29:53;;;;;;;38.03;21.73;;;4.30;99.90;;;;;;5081506;28;20487;-38
2022/03/02 00:32:19;;;;;;;38.13;22.35;;;4.30;99.90;;;;;;5053132;28;20059;-38
2022/03/02 00:34:45;;;;;;;38.80;23.30;;;4.30;99.90;;;;;;5067688;28;20037;-37
2022/03/02 00:37:12;;;;;;;42.30;24.05;;;4.30;99.90;;;;;;5050411;28;20431;-38
2022/03/02 00:39:38;;;;;;;45.78;24.63;;;4.30;99.90;;;;;;5048755;28;20044;-38
2022/03/02 00:42:06;;;;;;;42.63;23.77;;;4.30;99.90;;;;;;5050345;28;20115;-38
2022/03/02 00:44:32;;;;;;;41.58;22.52;;;4.30;99.90;;;;;;5043392;28;20090;-38
2022/03/02 00:46:59;;;;;;;40.00;22.63;;;4.20;99.90;;;;;;5067207;28;20076;-38
2022/03/02 00:49:27;;;;;;;38.22;23.33;;;4.30;99.90;;;;;;5068699;28;20793;-38
2022/03/02 00:51:56;;;;;;;42.63;24.17;;;4.20;99.90;;;;;;5058149;28;20071;-38
2022/03/02 00:54:23;;;;;;;42.78;23.50;;;4.20;99.90;;;;;;5066343;28;20041;-38
2022/03/02 00:56:48;;;;;;;45.47;24.83;;;4.20;99.90;;;;;;5067125;28;20374;-38
2022/03/02 00:59:14;;;;;;;40.78;23.27;;;4.20;99.90;;;;;;5048864;28;20037;-38
2022/03/02 01:01:40;;;;;;;41.50;23.00;;;4.20;99.90;;;;;;5045332;28;20117;-38
2022/03/02 01:04:09;;;;;;;44.40;23.70;;;4.10;99.90;;;;;;5061851;28;20071;-38
2022/03/02 01:06:35;;;;;;;45.20;24.75;;;4.10;99.90;;;;;;5062188;28;20076;-38
2022/03/02 01:09:02;;;;;;;43.03;24.58;;;4.10;99.90;;;;;;5057395;28;20076;-39
2022/03/02 01:11:28;;;;;;;42.55;24.10;;;4.10;99.90;;;;;;5045984;28;20135;-38
2022/03/02 01:13:54;;;;;;;43.05;24.48;;;4.10;99.90;;;;;;5048960;28;20063;-39
2022/03/02 01:16:20;;;;;;;44.13;23.77;;;4.10;99.90;;;;;;5046995;28;20041;-38
2022/03/02 01:18:46;;;;;;;43.00;24.90;;;4.10;99.90;;;;;;5030141;28;20045;-38
2022/03/02 01:21:12;;;;;;;43.00;24.23;;;4.10;99.90;;;;;;5066406;28;20128;-38
2022/03/02 01:23:38;;;;;;;44.88;25.55;;;4.10;99.90;;;;;;5032045;28;20041;-39
2022/03/02 01:26:05;;;;;;;43.10;26.08;;;4.10;99.90;;;;;;5068050;28;20041;-38
2022/03/02 01:28:31;;;;;;;43.28;25.85;;;4.10;99.90;;;;;;5023632;28;20036;-38
2022/03/02 01:30:59;;;;;;;38.67;23.17;;;4.10;99.90;;;;;;5031633;28;20063;-38
2022/03/02 01:33:25;;;;;;;43.20;25.08;;;4.10;99.90;;;;;;5031706;28;20174;-38
2022/03/02 01:35:51;;;;;;;40.45;23.42;;;4.10;99.90;;;;;;5027593;28;20041;-38
2022/03/02 01:38:17;;;;;;;47.38;26.73;;;4.10;99.90;;;;;;5045375;28;20064;-39
2022/03/02 01:40:43;;;;;;;47.30;26.13;;;4.10;99.90;;;;;;5066998;28;20070;-39
2022/03/02 01:43:09;;;;;;;44.58;26.25;;;4.10;99.90;;;;;;5078080;28;20067;-38
2022/03/02 01:45:35;;;;;;;40.45;23.90;;;4.10;99.90;;;;;;5065651;28;20049;-38
2022/03/02 01:48:03;;;;;;;47.33;25.25;;;4.10;99.90;;;;;;5079487;28;20036;-38
2022/03/02 01:50:30;;;;;;;44.00;24.45;;;4.10;99.90;;;;;;5066538;28;20047;-39
2022/03/02 01:52:56;;;;;;;43.30;24.70;;;4.10;99.90;;;;;;5032478;28;20088;-38
2022/03/02 01:55:22;;;;;;;44.40;24.70;;;4.00;99.90;;;;;;5068648;28;20078;-38
2022/03/02 01:57:50;;;;;;;48.92;26.33;;;4.00;99.90;;;;;;5052555;28;20121;-39
2022/03/02 02:00:21;;;;;;;49.95;26.20;;;4.00;99.90;;;;;;5051732;28;20053;-38
2022/03/02 02:02:48;;;;;;;50.03;26.88;;;4.00;99.90;;;;;;5043134;28;20109;-39
2022/03/02 02:05:14;;;;;;;45.73;25.37;;;4.00;99.90;;;;;;5052467;28;20436;-39
2022/03/02 02:07:41;;;;;;;45.53;25.75;;;3.90;99.90;;;;;;5068345;28;20508;-38
2022/03/02 02:10:08;;;;;;;44.50;25.88;;;3.90;99.90;;;;;;5051525;28;20132;-38
2022/03/02 02:12:35;;;;;;;45.15;26.88;;;3.80;99.90;;;;;;5052725;28;20052;-38
2022/03/02 02:15:01;;;;;;;46.85;25.42;;;3.80;99.90;;;;;;5051409;28;20482;-38
2022/03/02 02:17:27;;;;;;;46.60;26.38;;;3.70;99.90;;;;;;5034935;28;20370;-38
2022/03/02 02:19:53;;;;;;;45.30;25.15;;;3.70;99.90;;;;;;5070230;28;20118;-38
2022/03/02 02:22:20;;;;;;;43.30;23.48;;;3.60;99.90;;;;;;5074806;28;20858;-38
2022/03/02 02:24:46;;;;;;;43.58;24.65;;;3.50;99.90;;;;;;5037494;28;20041;-38
2022/03/02 02:27:14;;;;;;;47.05;25.08;;;3.40;99.90;;;;;;5052329;28;20165;-38
2022/03/02 02:29:42;;;;;;;40.33;24.25;;;3.30;99.90;;;;;;5065023;28;20131;-39
2022/03/02 02:32:08;;;;;;;42.90;23.30;;;3.20;99.90;;;;;;5077264;28;20076;-38
2022/03/02 02:34:35;;;;;;;45.28;24.83;;;3.10;99.90;;;;;;5066579;28;20136;-38
2022/03/02 02:37:05;;;;;;;41.65;23.35;;;3.10;99.90;;;;;;5050823;28;20052;-38
2022/03/02 02:39:31;;;;;;;43.78;23.77;;;2.90;99.90;;;;;;5049708;28;20090;-38
2022/03/02 02:42:06;;;;;;;44.92;25.40;;;2.90;99.90;;;;;;5083518;28;20040;-38
2022/03/02 02:44:34;;;;;;;46.67;25.45;;;2.80;99.90;;;;;;5081143;28;20129;-38
2022/03/02 02:47:01;;;;;;;50.28;26.83;;;2.80;99.90;;;;;;5058920;28;20076;-38
2022/03/02 02:49:28;;;;;;;52.58;26.77;;;2.80;99.90;;;;;;5051944;28;20033;-37
2022/03/02 02:51:54;;;;;;;52.50;27.25;;;2.80;99.90;;;;;;5062445;28;20044;-38
2022/03/02 02:54:21;;;;;;;54.35;27.20;;;2.80;99.90;;;;;;5026189;28;20040;-38
2022/03/02 02:56:47;;;;;;;50.78;28.40;;;2.70;99.90;;;;;;5079415;28;20048;-38
2022/03/02 02:59:13;;;;;;;50.20;25.58;;;2.70;99.90;;;;;;5069459;28;20383;-38
2022/03/02 03:01:38;;;;;;;53.00;27.05;;;2.70;99.90;;;;;;5065756;28;20095;-38
2022/03/02 03:04:06;;;;;;;48.95;26.33;;;2.70;99.90;;;;;;5081789;28;20113;-38
2022/03/02 03:06:33;;;;;;;50.53;26.83;;;2.60;99.90;;;;;;5080466;28;20098;-38
2022/03/02 03:08:59;;;;;;;53.35;27.42;;;2.60;99.90;;;;;;5037887;28;20044;-37
2022/03/02 03:11:25;;;;;;;49.22;25.92;;;2.50;99.90;;;;;;5043180;28;20091;-40
2022/03/02 03:13:51;;;;;;;52.00;27.77;;;2.50;99.90;;;;;;5033720;28;20068;-38
2022/03/02 03:16:17;;;;;;;51.03;27.05;;;2.50;99.90;;;;;;5051578;28;20039;-38
2022/03/02 03:18:43;;;;;;;51.85;27.55;;;2.40;99.90;;;;;;5049358;28;20117;-38
2022/03/02 03:21:09;;;;;;;53.38;27.38;;;2.40;99.90;;;;;;5051586;28;20300;-38
2022/03/02 03:23:37;;;;;;;48.53;26.35;;;2.30;99.90;;;;;;5050722;28;20070;-38
2022/03/02 03:26:03;;;;;;;52.90;26.92;;;2.30;99.90;;;;;;5066932;28;20088;-38
2022/03/02 03:28:29;;;;;;;51.58;26.77;;;2.20;99.90;;;;;;5050737;28;20040;-38
2022/03/02 03:30:56;;;;;;;51.85;27.25;;;2.20;99.90;;;;;;5065767;28;20127;-38
2022/03/02 03:33:22;;;;;;;47.30;26.23;;;2.20;99.90;;;;;;5071706;28;20036;-38
2022/03/02 03:35:48;;;;;;;53.55;27.08;;;2.10;99.90;;;;;;5066373;28;20043;-38
2022/03/02 03:38:14;;;;;;;53.83;27.83;;;2.10;99.90;;;;;;5049710;28;20040;-38
2022/03/02 03:40:40;;;;;;;50.20;26.92;;;2.00;99.90;;;;;;5076835;28;20121;-37
2022/03/02 03:43:06;;;;;;;50.13;26.40;;;2.00;99.90;;;;;;5040779;28;20045;-38
2022/03/02 03:45:32;;;;;;;49.95;26.70;;;2.00;99.90;;;;;;5080741;28;20616;-38
2022/03/02 03:47:58;;;;;;;49.55;27.98;;;2.00;99.90;;;;;;5061968;28;20621;-38
2022/03/02 03:50:25;;;;;;;47.90;27.10;;;2.00;99.90;;;;;;5058915;28;20145;-38
2022/03/02 03:52:51;;;;;;;51.00;28.03;;;2.00;99.90;;;;;;5064699;28;20040;-37
2022/03/02 03:55:17;;;;;;;52.17;27.02;;;2.00;99.90;;;;;;5050313;28;20033;-37
2022/03/02 03:57:43;;;;;;;53.33;27.35;;;2.00;99.90;;;;;;5048695;28;20398;-38
2022/03/02 04:00:12;;;;;;;49.40;26.27;;;1.90;99.90;;;;;;5033350;28;20100;-38
2022/03/02 04:02:39;;;;;;;49.55;27.23;;;1.90;99.90;;;;;;5048488;28;20079;-38
2022/03/02 04:05:05;;;;;;;47.17;25.77;;;1.80;99.90;;;;;;5081095;28;20041;-37
2022/03/02 04:07:31;;;;;;;49.00;26.30;;;1.70;99.90;;;;;;5065254;28;20509;-37
2022/03/02 04:09:57;;;;;;;45.38;25.80;;;1.60;99.90;;;;;;5033106;28;20044;-38
2022/03/02 04:12:23;;;;;;;45.65;25.50;;;1.60;99.90;;;;;;5049285;28;20044;-38
2022/03/02 04:14:48;;;;;;;49.05;25.90;;;1.50;99.90;;;;;;5046941;28;20032;-37
2022/03/02 04:17:15;;;;;;;49.53;27.30;;;1.50;99.90;;;;;;5081041;28;20036;-37
2022/03/02 04:19:41;;;;;;;48.65;27.27;;;1.50;99.90;;;;;;5045193;28;20148;-37
2022/03/02 04:22:07;;;;;;;47.80;25.85;;;1.50;99.90;;;;;;5049391;28;20466;-38
2022/03/02 04:24:33;;;;;;;51.25;27.42;;;1.50;99.90;;;;;;5045480;28;20263;-38
2022/03/02 04:26:58;;;;;;;49.17;26.88;;;1.40;99.90;;;;;;5060970;28;20658;-37
2022/03/02 04:29:24;;;;;;;53.33;27.95;;;1.40;99.90;;;;;;5066364;28;20048;-37
2022/03/02 04:31:50;;;;;;;51.00;28.02;;;1.40;99.90;;;;;;5050206;28;20036;-38
2022/03/02 04:34:17;;;;;;;54.15;27.73;;;1.40;99.90;;;;;;5033184;28;20174;-37
2022/03/02 04:36:43;;;;;;;46.35;25.42;;;1.40;99.90;;;;;;5049541;28;20127;-37
2022/03/02 04:39:09;;;;;;;45.35;25.33;;;1.40;99.90;;;;;;5063415;28;20502;-37
2022/03/02 04:41:35;;;;;;;47.13;24.63;;;1.30;99.90;;;;;;5043182;28;20052;-38
2022/03/02 04:44:01;;;;;;;48.80;25.90;;;1.30;99.90;;;;;;5045907;28;20040;-37
2022/03/02 04:46:26;;;;;;;47.42;25.88;;;1.20;99.90;;;;;;5031276;28;20125;-37
2022/03/02 04:48:52;;;;;;;44.60;24.30;;;1.20;99.90;;;;;;5049441;28;20143;-37
2022/03/02 04:51:19;;;;;;;43.80;25.77;;;1.20;99.90;;;;;;5064251;28;20127;-37
2022/03/02 04:53:46;;;;;;;49.95;25.80;;;1.10;99.90;;;;;;5044780;28;20060;-37
2022/03/02 04:56:12;;;;;;;48.42;27.20;;;1.10;99.90;;;;;;5049467;28;20130;-37
2022/03/02 04:58:38;;;;;;;49.08;27.25;;;1.10;99.90;;;;;;5066725;28;20071;-38
2022/03/02 05:01:04;;;;;;;44.38;24.70;;;1.10;99.90;;;;;;5050505;28;20447;-38
2022/03/02 05:03:30;;;;;;;47.50;25.73;;;1.10;99.90;;;;;;5045819;28;20045;-38
2022/03/02 05:05:57;;;;;;;47.97;26.55;;;1.10;99.90;;;;;;5044444;28;20032;-38
2022/03/02 05:08:23;;;;;;;48.20;26.88;;;1.00;99.90;;;;;;5061151;28;20044;-38
2022/03/02 05:10:49;;;;;;;49.40;26.25;;;1.00;99.90;;;;;;5012902;28;20234;-38
2022/03/02 05:13:15;;;;;;;53.35;29.27;;;1.00;99.90;;;;;;5068073;28;20044;-38
2022/03/02 05:15:41;;;;;;;54.40;27.80;;;1.00;99.90;;;;;;5077076;28;20362;-38
2022/03/02 05:18:07;;;;;;;52.33;27.45;;;1.00;99.90;;;;;;5047810;28;20048;-38
2022/03/02 05:20:33;;;;;;;50.58;26.67;;;1.00;99.90;;;;;;5058469;28;20037;-38
2022/03/02 05:22:59;;;;;;;52.05;27.40;;;1.00;99.90;;;;;;5045934;28;20533;-38
2022/03/02 05:25:24;;;;;;;48.28;26.23;;;1.00;99.90;;;;;;5066012;28;20048;-38
2022/03/02 05:27:51;;;;;;;48.35;26.15;;;0.90;99.90;;;;;;5048781;28;20087;-38
2022/03/02 05:30:19;;;;;;;51.38;26.33;;;1.00;99.90;;;;;;5065420;28;20044;-38
2022/03/02 05:32:45;;;;;;;49.50;27.70;;;0.90;99.90;;;;;;5047409;28;20086;-38
2022/03/02 05:35:11;;;;;;;46.97;25.20;;;0.90;99.90;;;;;;5015420;28;20059;-38
2022/03/02 05:37:42;;;;;;;44.10;24.10;;;0.80;99.90;;;;;;5065698;28;20041;-38
2022/03/02 05:40:19;;;;;;;49.40;24.92;;;0.80;99.90;;;;;;5065121;28;20488;-37
2022/03/02 05:42:45;;;;;;;46.75;25.98;;;0.80;99.90;;;;;;5061818;28;20052;-38
2022/03/02 05:45:11;;;;;;;54.08;26.90;;;0.80;99.90;;;;;;5068673;28;20044;-38
2022/03/02 05:47:38;;;;;;;47.75;25.17;;;0.80;99.90;;;;;;5044365;28;20036;-38
2022/03/02 05:50:07;;;;;;;46.42;25.60;;;0.80;99.90;;;;;;5051217;28;20389;-38
2022/03/02 05:52:33;;;;;;;53.63;27.60;;;0.70;99.90;;;;;;5065923;28;20123;-38
2022/03/02 05:54:59;;;;;;;51.55;25.95;;;0.70;99.90;;;;;;5064713;28;20508;-38
2022/03/02 05:57:25;;;;;;;48.38;24.95;;;0.70;99.90;;;;;;5056233;28;20044;-38
2022/03/02 05:59:51;;;;;;;46.97;25.73;;;0.60;99.90;;;;;;5062882;28;20048;-38
2022/03/02 06:02:17;;;;;;;53.42;24.77;;;0.60;99.90;;;;;;5065090;28;20256;-38
2022/03/02 06:04:44;;;;;;;46.97;25.85;;;0.50;99.90;;;;;;5063846;28;20445;-38
2022/03/02 06:07:09;;;;;;;46.00;24.63;;;0.50;99.90;;;;;;5036930;28;20131;-38
2022/03/02 06:09:35;;;;;;;44.85;24.67;;;0.50;99.90;;;;;;5041864;28;20073;-38
2022/03/02 06:12:02;;;;;;;46.40;23.73;;;0.50;99.90;;;;;;5045287;28;20048;-38
2022/03/02 06:14:28;;;;;;;44.47;24.20;;;0.40;99.90;;;;;;5060235;28;20033;-38
2022/03/02 06:16:54;;;;;;;48.53;26.67;;;0.40;99.90;;;;;;5042695;28;20040;-38
2022/03/02 06:19:20;;;;;;;55.10;27.92;;;0.40;99.90;;;;;;5044761;28;20115;-38
2022/03/02 06:21:47;;;;;;;49.78;26.70;;;0.50;99.90;;;;;;5062514;28;20071;-38
2022/03/02 06:24:14;;;;;;;52.40;26.80;;;0.50;99.90;;;;;;5045344;28;20119;-38
2022/03/02 06:26:41;;;;;;;49.92;26.30;;;0.50;99.90;;;;;;5028512;28;20045;-38
2022/03/02 06:29:08;;;;;;;54.92;27.58;;;0.50;99.90;;;;;;5045971;28;20427;-38
2022/03/02 06:31:34;;;;;;;57.55;28.00;;;0.50;99.90;;;;;;5057944;28;20045;-38
2022/03/02 06:34:00;;;;;;;52.92;27.20;;;0.50;99.90;;;;;;5077551;28;20037;-37
2022/03/02 06:36:26;;;;;;;53.60;27.08;;;0.60;99.90;;;;;;5028908;28;20051;-38
2022/03/02 06:38:52;;;;;;;54.65;27.98;;;0.60;99.90;;;;;;5061304;28;20053;-38
2022/03/02 06:41:28;;;;;;;51.83;26.02;;;1.20;99.90;;;;;;5065860;28;20071;-38
2022/03/02 06:44:01;;;;;;;48.65;26.15;;;0.60;99.90;;;;;;5027090;28;20040;-38
2022/03/02 06:46:55;;;;;;;49.60;25.98;;;0.60;99.90;;;;;;5077767;28;20118;-38
2022/03/02 06:49:57;;;;;;;51.45;25.98;;;0.60;99.90;;;;;;5034453;28;20666;-38
2022/03/02 06:52:42;;;;;;;50.90;25.10;;;0.60;99.90;;;;;;5064104;28;20056;-38
2022/03/02 06:55:10;;;;;;;50.83;25.48;;;0.60;99.90;;;;;;5047006;28;20028;-38
2022/03/02 06:57:37;;;;;;;54.35;27.92;;;0.60;99.90;;;;;;5055491;28;20235;-38
2022/03/02 07:00:08;;;;;;;51.15;27.75;;;0.60;99.90;;;;;;5061737;28;20138;-38
2022/03/02 07:03:02;;;;;;;51.85;27.35;;;0.60;99.90;;;;;;5043962;28;20055;-38
2022/03/02 07:05:29;;;;;;;54.85;27.27;;;1.00;99.90;;;;;;5069282;28;20040;-38
2022/03/02 07:07:58;;;;;;;52.95;28.33;;;1.50;99.90;;;;;;5066197;28;20385;-38
2022/03/02 07:10:25;;;;;;;55.38;27.17;;;1.90;99.90;;;;;;5069881;28;20156;-38
2022/03/02 07:12:52;;;;;;;50.35;28.30;;;2.00;99.90;;;;;;5061141;28;20037;-38
2022/03/02 07:15:19;;;;;;;52.50;27.65;;;2.00;99.90;;;;;;5068633;28;20429;-38
2022/03/02 07:17:45;;;;;;;46.72;26.45;;;2.00;99.90;;;;;;5063443;28;20151;-38
2022/03/02 07:20:12;;;;;;;50.03;27.42;;;2.00;99.90;;;;;;5067442;28;20029;-38
2022/03/02 07:22:43;;;;;;;48.50;27.42;;;2.20;99.90;;;;;;5083220;28;20577;-39
2022/03/02 07:25:37;;;;;;;52.15;28.05;;;2.40;99.90;;;;;;5033246;28;20404;-39
2022/03/02 07:28:03;;;;;;;48.17;27.27;;;2.50;99.90;;;;;;5068379;28;20028;-38
2022/03/02 07:30:30;;;;;;;51.40;27.58;;;2.70;99.90;;;;;;5047193;28;20059;-38
2022/03/02 07:33:01;;;;;;;50.03;28.88;;;2.60;99.90;;;;;;5066237;28;20044;-39
2022/03/02 07:35:31;;;;;;;47.95;27.15;;;2.60;99.90;;;;;;5048333;28;20506;-38
2022/03/02 07:37:58;;;;;;;46.63;27.23;;;2.70;99.90;;;;;;5049562;28;20372;-38
2022/03/02 07:40:24;;;;;;;46.38;26.80;;;2.90;99.90;;;;;;5050288;28;20044;-39
2022/03/02 07:42:51;;;;;;;51.05;27.48;;;3.20;99.90;;;;;;5032652;28;20044;-39
2022/03/02 07:45:17;;;;;;;48.97;26.60;;;3.50;99.90;;;;;;5049973;28;20060;-39
2022/03/02 07:47:43;;;;;;;48.22;26.67;;;3.80;99.90;;;;;;5046673;28;20039;-39
2022/03/02 07:50:11;;;;;;;49.35;28.45;;;4.10;99.90;;;;;;5068402;28;20043;-39
2022/03/02 07:52:39;;;;;;;47.17;27.88;;;4.40;99.90;;;;;;5031698;28;20525;-39
2022/03/02 07:55:09;;;;;;;;;;;4.80;99.90;;;;;;5053708;28;20042;-39
2022/03/02 07:57:41;;;;;;;45.13;27.67;;;5.20;99.90;;;;;;5083523;28;20019;-40
2022/03/02 08:00:09;;;;;;;47.22;25.85;;;5.90;99.90;;;;;;5084619;28;20646;-39
2022/03/02 08:02:35;;;;;;;46.33;26.33;;;6.40;99.90;;;;;;5069960;28;20560;-40
2022/03/02 08:05:01;;;;;;;46.47;27.20;;;6.60;99.90;;;;;;5086435;28;20485;-39
2022/03/02 08:07:27;;;;;;;45.60;28.30;;;6.80;99.90;;;;;;5069231;28;20612;-39
2022/03/02 08:09:53;;;;;;;48.55;27.70;;;7.00;99.90;;;;;;5083685;28;20051;-39
2022/03/02 08:12:23;;;;;;;43.80;26.67;;;7.30;99.90;;;;;;5083192;28;20123;-40
2022/03/02 08:14:50;;;;;;;50.30;26.38;;;7.50;99.90;;;;;;5048251;28;20066;-40
2022/03/02 08:17:19;;;;;;;43.45;26.45;;;7.50;99.90;;;;;;5102676;27;20196;-40
2022/03/02 08:19:46;;;;;;;43.80;27.10;;;7.50;99.90;;;;;;5083180;28;20135;-40
2022/03/02 08:22:24;;;;;;;47.70;26.58;;;7.50;99.90;;;;;;5086973;28;20086;-40
2022/03/02 08:25:11;;;;;;;46.97;26.92;;;7.30;99.90;;;;;;5063882;28;20067;-40
2022/03/02 08:27:43;;;;;;;44.13;27.30;;;7.10;99.90;;;;;;5100672;27;20036;-40
2022/03/02 08:30:11;;;;;;;44.80;27.08;;;6.90;99.90;;;;;;5099480;28;20377;-40
2022/03/02 08:32:42;;;;;;;45.88;26.98;;;6.80;99.90;;;;;;5084748;28;20048;-40
2022/03/02 08:35:08;;;;;;;47.25;27.52;;;6.50;99.90;;;;;;5104091;27;20078;-40
2022/03/02 08:37:35;;;;;;;44.83;26.40;;;6.20;99.90;;;;;;5065885;28;20040;-40
2022/03/02 08:40:02;;;;;;;45.38;25.95;;;6.00;99.90;;;;;;5068727;28;20105;-40
2022/03/02 08:42:31;;;;;;;39.72;25.52;;;5.70;99.90;;;;;;5069509;28;20253;-40
2022/03/02 08:44:57;;;;;;;46.08;27.20;;;5.50;99.90;;;;;;5084928;28;20047;-40
2022/03/02 08:47:23;;;;;;;43.75;26.42;;;5.50;99.90;;;;;;5088615;28;20078;-40
2022/03/02 08:49:51;;;;;;;42.70;25.52;;;5.40;99.90;;;;;;5052050;28;20070;-40
2022/03/02 08:52:20;;;;;;;44.20;26.70;;;5.40;99.90;;;;;;5088082;28;20362;-40
2022/03/02 08:54:48;;;;;;;43.92;25.30;;;5.50;99.90;;;;;;5085123;28;20059;-40
2022/03/02 08:57:18;;;;;;;42.28;25.20;;;5.70;99.90;;;;;;5052710;28;20044;-40
2022/03/02 08:59:44;;;;;;;43.70;25.27;;;5.80;99.90;;;;;;5084273;28;20256;-41
2022/03/02 09:02:18;;;;;;;42.13;25.60;;;5.90;99.90;;;;;;5065584;28;20079;-41
2022/03/02 09:04:47;;;;;;;41.38;25.50;;;6.00;99.90;;;;;;5063735;28;20063;-40
2022/03/02 09:07:16;;;;;;;46.50;25.33;;;6.00;99.90;;;;;;5065992;28;20120;-40
2022/03/02 09:09:42;;;;;;;41.78;24.17;;;5.90;99.90;;;;;;5047393;28;20113;-40
2022/03/02 09:12:08;;;;;;;41.40;23.80;;;6.00;99.90;;;;;;5027363;28;20123;-40
2022/03/02 09:14:38;;;;;;;43.67;26.50;;;6.00;99.90;;;;;;5067060;28;20048;-41
2022/03/02 09:17:05;;;;;;;40.13;23.75;;;6.00;99.90;;;;;;5048381;28;20471;-41
2022/03/02 09:19:32;;;;;;;40.80;24.45;;;6.20;99.90;;;;;;5037812;28;20045;-41
2022/03/02 09:21:58;;;;;;;44.42;25.85;;;6.30;99.90;;;;;;5046034;28;20507;-40
2022/03/02 09:24:29;;;;;;;41.05;24.77;;;6.30;99.90;;;;;;5068255;28;20498;-40
2022/03/02 09:26:57;;;;;;;41.50;23.42;;;6.40;99.90;;;;;;5045362;28;20170;-41
2022/03/02 09:29:28;;;;;;;40.65;25.17;;;6.50;99.90;;;;;;5046478;28;20036;-41
2022/03/02 09:31:57;;;;;;;39.05;23.40;;;6.50;99.90;;;;;;5030854;28;20107;-40
2022/03/02 09:34:29;;;;;;;38.10;23.75;;;6.60;99.90;;;;;;5043991;28;20037;-41
2022/03/02 09:36:57;;;;;;;39.28;23.38;;;6.60;99.90;;;;;;5048734;28;20597;-41
2022/03/02 09:39:24;;;;;;;38.08;23.02;;;6.60;99.90;;;;;;5088221;28;20263;-41
2022/03/02 09:42:00;;;;;;;42.40;24.42;;;6.60;99.90;;;;;;5066324;28;20545;-40
2022/03/02 09:44:40;;;;;;;37.97;23.52;;;6.70;99.90;;;;;;5046686;28;20043;-41
2022/03/02 09:47:09;;;;;;;43.22;23.40;;;6.60;99.90;;;;;;5043738;28;20581;-42
2022/03/02 09:49:36;;;;;;;38.00;23.02;;;6.70;99.90;;;;;;5067670;28;20090;-43
2022/03/02 09:52:09;;;;;;;39.28;24.30;;;6.80;99.90;;;;;;5054527;28;20091;-42
2022/03/02 09:54:40;;;;;;;39.15;22.90;;;6.80;99.90;;;;;;5081199;28;20048;-41
2022/03/02 09:57:07;;;;;;;39.92;23.48;;;6.90;99.90;;;;;;5063588;28;20456;-41
2022/03/02 09:59:39;;;;;;;42.92;22.67;;;6.80;99.90;;;;;;5065290;28;20079;-42
2022/03/02 10:02:08;;;;;;;40.47;24.38;;;6.90;99.90;;;;;;5063811;28;20052;-42
2022/03/02 10:04:36;;;;;;;35.97;21.40;;;7.10;99.90;;;;;;5065947;28;20060;-42
2022/03/02 10:07:26;;;;;;;41.13;22.92;;;7.10;99.90;;;;;;5015253;28;20083;-41
2022/03/02 10:10:08;;;;;;;41.63;24.15;;;7.20;99.90;;;;;;5048044;28;20444;-42
2022/03/02 10:12:36;;;;;;;38.45;22.83;;;7.30;99.90;;;;;;5065199;28;20041;-41
2022/03/02 10:15:04;;;;;;;39.55;23.17;;;7.30;99.90;;;;;;5049881;28;20098;-41
2022/03/02 10:17:37;;;;;;;39.30;23.02;;;7.30;99.90;;;;;;5069809;28;20041;-46
2022/03/02 10:20:16;;;;;;;41.13;23.92;;;7.50;99.90;;;;;;5051925;28;20133;-41
2022/03/02 10:23:21;;;;;;;36.88;22.23;;;7.50;99.90;;;;;;5069127;28;20119;-41
2022/03/02 10:25:50;;;;;;;35.08;22.48;;;7.50;99.90;;;;;;5083716;28;20114;-42
2022/03/02 10:28:25;;;;;;;40.35;22.52;;;7.70;99.90;;;;;;5048563;28;20072;-43
2022/03/02 10:31:10;;;;;;;40.75;22.05;;;7.70;99.90;;;;;;5069371;28;20075;-42
2022/03/02 10:33:42;;;;;;;45.22;24.15;;;7.80;99.90;;;;;;5067026;28;20045;-41
2022/03/02 10:36:10;;;;;;;34.35;21.20;;;7.90;99.90;;;;;;5067423;28;20032;-42
2022/03/02 10:38:39;;;;;;;33.50;21.25;;;8.00;99.90;;;;;;5051370;28;20094;-41
2022/03/02 10:41:08;;;;;;;37.35;22.00;;;8.10;99.90;;;;;;5080474;28;20421;-42
2022/03/02 10:43:59;;;;;;;39.05;22.30;;;8.20;99.90;;;;;;5050637;28;20402;-42
2022/03/02 10:46:26;;;;;;;32.25;19.98;;;8.30;99.90;;;;;;5029409;28;20048;-40
2022/03/02 10:49:34;;;;;;;32.38;20.45;;;8.40;99.90;;;;;;5051219;28;20335;-41
2022/03/02 10:52:01;;;;;;;36.53;21.83;;;8.40;99.90;;;;;;5062788;28;20075;-41
2022/03/02 10:54:30;;;;;;;39.40;21.23;;;8.40;99.90;;;;;;5068970;28;20443;-43
2022/03/02 10:57:02;;;;;;;37.25;20.88;;;8.50;99.90;;;;;;5065535;28;20113;-41
2022/03/02 10:59:31;;;;;;;33.50;19.80;;;8.50;99.90;;;;;;5049455;28;20234;-43
2022/03/02 11:02:00;;;;;;;34.22;20.80;;;8.50;99.90;;;;;;5063568;28;20044;-41
2022/03/02 11:04:28;;;;;;;37.75;21.02;;;8.60;99.90;;;;;;5049052;28;20040;-42
2022/03/02 11:06:56;;;;;;;38.75;21.73;;;8.60;99.90;;;;;;5067894;28;20114;-41
2022/03/02 11:09:25;;;;;;;32.00;20.13;;;8.60;99.90;;;;;;5069270;28;20108;-42
2022/03/02 11:11:54;;;;;;;32.25;18.52;;;8.60;99.90;;;;;;5049202;28;20048;-42
2022/03/02 11:14:22;;;;;;;32.15;19.55;;;8.60;99.90;;;;;;5015396;28;20049;-44
2022/03/02 11:16:50;;;;;;;34.13;18.83;;;8.70;99.90;;;;;;5078863;28;20136;-42
2022/03/02 11:19:18;;;;;;;31.05;19.33;;;8.80;99.90;;;;;;5068511;28;20068;-42
2022/03/02 11:21:50;;;;;;;27.25;17.60;;;8.80;99.90;;;;;;5079280;28;20039;-41
2022/03/02 11:24:17;;;;;;;26.70;17.60;;;8.90;99.90;;;;;;5062972;28;20124;-40
2022/03/02 11:26:44;;;;;;;;;;;9.00;99.90;;;;;;5048252;28;20041;-41
2022/03/02 11:29:17;;;;;;;28.63;17.08;;;9.10;99.90;;;;;;5068325;28;19927;-41
2022/03/02 11:31:45;;;;;;;30.25;18.27;;;9.20;99.90;;;;;;5048951;28;20453;-43
2022/03/02 11:34:12;;;;;;;27.90;18.10;;;9.30;99.90;;;;;;5066464;28;20421;-42
2022/03/02 11:36:41;;;;;;;28.60;17.95;;;9.20;99.90;;;;;;5076038;28;20039;-41
2022/03/02 11:39:08;;;;;;;27.55;17.00;;;9.20;99.90;;;;;;5049636;28;20458;-42
2022/03/02 11:41:40;;;;;;;30.20;17.23;;;9.30;99.90;;;;;;5069194;28;20055;-44
2022/03/02 11:44:45;;;;;;;28.17;17.92;;;9.30;99.90;;;;;;5065729;28;20124;-42
2022/03/02 11:47:15;;;;;;;27.88;17.27;;;9.30;99.90;;;;;;5024644;28;20404;-43
2022/03/02 11:49:53;;;;;;;28.08;16.75;;;9.40;99.90;;;;;;5024269;28;20049;-42
2022/03/02 11:52:24;;;;;;;28.15;16.13;;;9.40;99.90;;;;;;5037356;28;20125;-42
2022/03/02 11:54:58;;;;;;;28.30;17.98;;;9.50;99.90;;;;;;5048983;28;20040;-43
2022/03/02 11:57:26;;;;;;;29.17;17.90;;;9.50;99.90;;;;;;5067967;28;20040;-42
2022/03/02 12:00:19;;;;;;;29.27;18.08;;;9.60;99.90;;;;;;5049667;28;20037;-43
2022/03/02 12:02:54;;;;;;;27.05;16.65;;;9.70;99.90;;;;;;5049779;28;20084;-42
2022/03/02 12:05:23;;;;;;;27.00;17.10;;;9.70;99.90;;;;;;5038181;28;20061;-42
2022/03/02 12:08:04;;;;;;;26.25;17.15;;;9.70;99.90;;;;;;5024731;28;20340;-42
2022/03/02 12:10:35;;;;;;;29.02;16.60;;;9.80;99.90;;;;;;5024312;28;20044;-42
2022/03/02 12:13:02;;;;;;;25.40;16.67;;;9.80;99.90;;;;;;5068673;28;20044;-42
2022/03/02 12:15:47;;;;;;;27.58;16.52;;;9.80;99.90;;;;;;5033480;28;20491;-41
2022/03/02 12:18:15;;;;;;;27.80;16.80;;;9.80;99.90;;;;;;5083509;28;20292;-42
2022/03/02 12:20:47;;;;;;;;;;;9.90;99.90;;;;;;5047957;28;20131;-42
2022/03/02 12:23:27;;;;;;;24.23;15.50;;;10.00;99.90;;;;;;5066155;28;19917;-41
2022/03/02 12:25:54;;;;;;;27.38;16.02;;;10.00;99.90;;;;;;5067206;28;20063;-42
2022/03/02 12:28:22;;;;;;;27.55;17.35;;;10.10;99.90;;;;;;5066507;28;20032;-41
2022/03/02 12:30:48;;;;;;;27.83;15.73;;;10.00;99.90;;;;;;5032558;28;20032;-42
2022/03/02 12:33:18;;;;;;;27.85;17.38;;;10.00;99.90;;;;;;5079660;28;20124;-41
2022/03/02 12:35:45;;;;;;;25.70;17.48;;;10.00;99.90;;;;;;5068471;28;20036;-41
2022/03/02 12:38:13;;;;;;;24.38;17.25;;;10.10;99.90;;;;;;5064014;28;20059;-41
2022/03/02 12:40:42;;;;;;;25.83;17.30;;;10.10;99.90;;;;;;5046721;28;20431;-42
2022/03/02 12:43:10;;;;;;;27.85;16.83;;;10.20;99.90;;;;;;5066216;28;20048;-42
2022/03/02 12:45:40;;;;;;;26.25;17.67;;;10.20;99.90;;;;;;5048313;28;20116;-42